createdAt,value
2022-11-26T00:01:22.605Z,31.23
2022-11-26T00:03:49.715Z,28.17
2022-11-26T00:06:36.176Z,35.23
2022-11-26T00:09:06.034Z,27.13
2022-11-26T00:11:33.263Z,28.40
2022-11-26T00:14:00.282Z,31.30
2022-11-26T00:16:28.116Z,34.40
2022-11-26T00:18:55.104Z,44.43
2022-11-26T00:21:25.633Z,33.30
2022-11-26T00:23:54.130Z,25.27
2022-11-26T00:26:24.418Z,34.67
2022-11-26T00:29:02.673Z,33.97
2022-11-26T00:31:29.995Z,37.60
2022-11-26T00:33:57.097Z,28.10
2022-11-26T00:36:27.095Z,28.60
2022-11-26T00:39:20.045Z,40.93
2022-11-26T00:41:51.613Z,23.83
2022-11-26T00:44:24.750Z,32.80
2022-11-26T00:46:52.316Z,34.33
2022-11-26T00:49:20.748Z,29.23
2022-11-26T00:51:47.954Z,28.63
2022-11-26T00:54:18.270Z,29.30
2022-11-26T00:56:47.026Z,39.93
2022-11-26T00:59:17.964Z,32.03
2022-11-26T01:01:44.898Z,27.30
2022-11-26T01:04:11.809Z,34.87
2022-11-26T01:06:44.289Z,43.23
2022-11-26T01:09:18.374Z,32.13
2022-11-26T01:11:48.718Z,35.70
2022-11-26T01:14:20.153Z,34.43
2022-11-26T01:16:49.144Z,30.13
2022-11-26T01:19:18.525Z,35.57
2022-11-26T01:21:45.502Z,43.90
2022-11-26T01:24:12.409Z,31.83
2022-11-26T01:26:43.664Z,40.50
2022-11-26T01:29:17.551Z,35.47
2022-11-26T01:31:45.119Z,46.97
2022-11-26T01:34:12.137Z,57.20
2022-11-26T01:36:42.151Z,31.37
2022-11-26T01:39:21.779Z,50.03
2022-11-26T01:42:23.220Z,47.17
2022-11-26T01:44:50.191Z,33.47
2022-11-26T01:47:34.883Z,46.10
2022-11-26T01:50:32.815Z,51.97
2022-11-26T01:53:27.952Z,51.73
2022-11-26T01:56:02.217Z,45.80
2022-11-26T01:58:43.539Z,63.07
2022-11-26T02:01:10.651Z,48.50
2022-11-26T02:03:55.152Z,54.13
2022-11-26T02:06:28.412Z,60.23
2022-11-26T02:08:56.567Z,51.37
2022-11-26T02:11:24.951Z,50.37
2022-11-26T02:14:00.060Z,53.37
2022-11-26T02:17:06.249Z,47.67
2022-11-26T02:20:10.911Z,60.37
2022-11-26T02:22:50.701Z,41.87
2022-11-26T02:26:08.607Z,43.70
2022-11-26T02:29:06.986Z,43.37
2022-11-26T02:31:46.640Z,50.47
2022-11-26T02:34:55.819Z,43.77
2022-11-26T02:37:37.893Z,46.60
2022-11-26T02:40:08.445Z,52.43
2022-11-26T02:42:36.937Z,41.23
2022-11-26T02:45:10.730Z,41.00
2022-11-26T02:47:43.594Z,46.20
2022-11-26T02:50:21.883Z,40.63
2022-11-26T02:52:50.082Z,51.90
2022-11-26T02:55:21.156Z,53.47
2022-11-26T02:57:51.512Z,70.57
2022-11-26T03:00:19.523Z,69.47
2022-11-26T03:02:48.579Z,66.07
2022-11-26T03:05:18.526Z,56.63
2022-11-26T03:07:49.834Z,57.50
2022-11-26T03:10:20.147Z,51.27
2022-11-26T03:12:47.848Z,60.37
2022-11-26T03:15:14.779Z,71.13
2022-11-26T03:17:42.907Z,70.67
2022-11-26T03:20:10.074Z,56.63
2022-11-26T03:22:37.249Z,59.43
2022-11-26T03:25:05.518Z,57.67
2022-11-26T03:27:32.424Z,53.83
2022-11-26T03:29:59.409Z,57.47
2022-11-26T03:32:26.490Z,62.23
2022-11-26T03:34:53.517Z,52.33
2022-11-26T03:37:20.656Z,50.17
2022-11-26T03:39:47.551Z,46.13
2022-11-26T03:42:15.223Z,56.03
2022-11-26T03:44:42.160Z,55.13
2022-11-26T03:47:09.053Z,55.90
2022-11-26T03:49:35.937Z,73.33
2022-11-26T03:52:03.169Z,74.73
2022-11-26T03:54:30.155Z,71.93
2022-11-26T03:56:57.023Z,52.03
2022-11-26T03:59:23.962Z,64.67
2022-11-26T04:01:50.977Z,74.43
2022-11-26T04:04:18.239Z,64.10
2022-11-26T04:06:46.527Z,61.53
2022-11-26T04:09:13.420Z,86.03
2022-11-26T04:11:40.372Z,64.77
2022-11-26T04:14:07.279Z,62.67
2022-11-26T04:16:34.194Z,55.77
2022-11-26T04:19:02.122Z,62.03
2022-11-26T04:21:29.024Z,71.87
2022-11-26T04:23:55.922Z,73.23
2022-11-26T04:26:22.911Z,64.33
2022-11-26T04:28:50.652Z,68.30
2022-11-26T04:31:18.160Z,64.17
2022-11-26T04:33:45.109Z,53.63
2022-11-26T04:36:12.283Z,65.80
2022-11-26T04:38:39.202Z,54.87
2022-11-26T04:41:06.253Z,76.00
2022-11-26T04:43:33.160Z,52.13
2022-11-26T04:46:00.426Z,52.70
2022-11-26T04:48:27.408Z,62.03
2022-11-26T04:50:54.393Z,44.03
2022-11-26T04:53:22.116Z,39.17
2022-11-26T04:55:50.771Z,58.87
2022-11-26T04:58:19.620Z,51.97
2022-11-26T05:00:50.574Z,50.73
2022-11-26T05:03:19.100Z,45.33
2022-11-26T05:05:47.057Z,56.50
2022-11-26T05:08:14.101Z,46.50
2022-11-26T05:10:41.109Z,50.93
2022-11-26T05:13:08.087Z,39.90
2022-11-26T05:15:34.972Z,39.03
2022-11-26T05:18:01.917Z,39.77
2022-11-26T05:20:28.778Z,34.80
2022-11-26T05:22:55.654Z,38.33
2022-11-26T05:25:22.671Z,39.80
2022-11-26T05:27:49.549Z,37.23
2022-11-26T05:30:16.616Z,54.87
2022-11-26T05:32:43.465Z,28.07
2022-11-26T05:35:10.474Z,40.23
2022-11-26T05:37:37.723Z,33.70
2022-11-26T05:40:05.682Z,39.13
2022-11-26T05:42:32.901Z,36.70
2022-11-26T05:44:59.805Z,40.67
2022-11-26T05:47:26.718Z,28.70
2022-11-26T05:49:53.824Z,39.57
2022-11-26T05:52:21.480Z,35.50
2022-11-26T05:54:48.404Z,35.20
2022-11-26T05:57:15.633Z,32.20
2022-11-26T05:59:43.491Z,28.53
2022-11-26T06:02:10.472Z,45.03
2022-11-26T06:04:37.748Z,30.60
2022-11-26T06:07:04.949Z,39.60
2022-11-26T06:09:32.038Z,46.47
2022-11-26T06:11:58.939Z,42.57
2022-11-26T06:14:25.777Z,48.93
2022-11-26T06:16:52.756Z,49.43
2022-11-26T06:19:19.801Z,57.90
2022-11-26T06:21:46.642Z,34.17
2022-11-26T06:24:13.752Z,42.83
2022-11-26T06:26:48.169Z,56.30
2022-11-26T06:29:15.188Z,74.43
2022-11-26T06:31:42.186Z,31.50
2022-11-26T06:34:09.095Z,37.93
2022-11-26T06:36:36.001Z,42.93
2022-11-26T06:39:03.339Z,34.77
2022-11-26T06:41:30.205Z,28.70
2022-11-26T06:43:59.026Z,25.40
2022-11-26T06:46:25.969Z,32.43
2022-11-26T06:48:52.809Z,35.10
2022-11-26T06:51:21.809Z,43.67
2022-11-26T06:53:49.492Z,27.03
2022-11-26T06:56:19.023Z,36.50
2022-11-26T06:58:48.040Z,22.60
2022-11-26T07:01:19.465Z,36.27
2022-11-26T07:03:47.263Z,27.17
2022-11-26T07:06:30.641Z,27.20
2022-11-26T07:09:02.212Z,37.60
2022-11-26T07:11:29.149Z,32.93
2022-11-26T07:13:56.017Z,40.10
2022-11-26T07:16:23.409Z,37.80
2022-11-26T07:18:56.392Z,28.53
2022-11-26T07:21:25.978Z,33.70
2022-11-26T07:23:52.900Z,32.27
2022-11-26T07:26:22.553Z,38.80
2022-11-26T07:28:49.761Z,31.20
2022-11-26T07:31:20.604Z,30.60
2022-11-26T07:33:48.186Z,38.30
2022-11-26T07:36:26.996Z,30.97
2022-11-26T07:38:58.795Z,26.30
2022-11-26T07:41:26.810Z,23.90
2022-11-26T07:43:54.206Z,58.67
2022-11-26T07:46:24.819Z,32.80
2022-11-26T07:48:51.771Z,30.23
2022-11-26T07:51:28.366Z,27.43
2022-11-26T07:53:57.275Z,30.73
2022-11-26T07:56:24.701Z,25.63
2022-11-26T07:58:51.828Z,20.43
2022-11-26T08:01:23.063Z,29.73
2022-11-26T08:03:51.451Z,80.93
2022-11-26T08:06:21.616Z,46.27
2022-11-26T08:08:49.440Z,33.70
2022-11-26T08:11:25.400Z,27.80
2022-11-26T08:14:01.601Z,33.70
2022-11-26T08:16:29.200Z,28.97
2022-11-26T08:19:02.616Z,27.23
2022-11-26T08:21:29.741Z,26.00
2022-11-26T08:23:57.168Z,17.10
2022-11-26T08:26:33.053Z,21.03
2022-11-26T08:29:02.204Z,22.20
2022-11-26T08:31:29.515Z,26.63
2022-11-26T08:33:59.344Z,30.40
2022-11-26T08:36:28.217Z,28.90
2022-11-26T08:38:55.268Z,15.77
2022-11-26T08:41:22.449Z,28.70
2022-11-26T08:44:06.559Z,25.33
2022-11-26T08:46:38.468Z,22.67
2022-11-26T08:49:07.182Z,23.77
2022-11-26T08:51:34.467Z,16.03
2022-11-26T08:54:02.246Z,35.70
2022-11-26T08:56:29.455Z,30.30
2022-11-26T08:58:56.383Z,22.80
2022-11-26T09:01:30.187Z,22.80
2022-11-26T09:04:00.004Z,24.87
2022-11-26T09:06:29.411Z,30.67
2022-11-26T09:09:15.180Z,25.43
2022-11-26T09:11:48.224Z,32.60
2022-11-26T09:14:20.769Z,32.57
2022-11-26T09:16:47.954Z,25.10
2022-11-26T09:19:15.979Z,27.63
2022-11-26T09:21:43.860Z,17.33
2022-11-26T09:24:11.234Z,18.50
2022-11-26T09:26:38.629Z,21.30
2022-11-26T09:29:06.142Z,24.57
2022-11-26T09:31:33.314Z,16.77
2022-11-26T09:34:02.120Z,23.80
2022-11-26T09:36:29.298Z,16.20
2022-11-26T09:38:57.996Z,25.50
2022-11-26T09:41:51.721Z,88.60
2022-11-26T09:44:40.793Z,39.77
2022-11-26T09:47:24.062Z,26.47
2022-11-26T09:50:03.047Z,39.27
2022-11-26T09:52:40.653Z,29.23
2022-11-26T09:55:29.657Z,21.97
2022-11-26T09:58:29.032Z,23.97
2022-11-26T10:00:59.750Z,26.73
2022-11-26T10:03:39.467Z,27.20
2022-11-26T10:06:44.018Z,28.53
2022-11-26T10:09:36.040Z,23.63
2022-11-26T10:13:11.200Z,15.73
2022-11-26T10:15:47.597Z,24.50
2022-11-26T10:18:26.020Z,17.97
2022-11-26T10:21:57.575Z,19.27
2022-11-26T10:24:42.120Z,22.00
2022-11-26T10:27:18.398Z,23.67
2022-11-26T10:29:55.873Z,20.03
2022-11-26T10:32:32.704Z,14.30
2022-11-26T10:34:59.582Z,28.90
2022-11-26T10:37:28.774Z,23.30
2022-11-26T10:40:25.497Z,18.43
2022-11-26T10:43:14.354Z,28.70
2022-11-26T10:45:48.683Z,18.60
2022-11-26T10:48:31.269Z,30.93
2022-11-26T10:51:13.928Z,24.37
2022-11-26T10:54:03.081Z,30.20
2022-11-26T10:56:39.532Z,23.60
2022-11-26T10:59:29.125Z,23.00
2022-11-26T11:02:04.763Z,15.93
2022-11-26T11:04:44.269Z,24.80
2022-11-26T11:07:38.381Z,13.53
2022-11-26T11:10:19.116Z,20.53
2022-11-26T11:13:10.123Z,27.70
2022-11-26T11:15:38.832Z,11.03
2022-11-26T11:18:13.396Z,24.03
2022-11-26T11:21:03.525Z,17.97
2022-11-26T11:24:07.183Z,14.67
2022-11-26T11:26:25.820Z,16.53
2022-11-26T11:28:56.430Z,16.97
2022-11-26T11:31:26.550Z,28.10
2022-11-26T11:34:23.229Z,22.67
2022-11-26T11:37:15.379Z,18.47
2022-11-26T11:39:43.462Z,39.57
2022-11-26T11:42:29.101Z,20.23
2022-11-26T11:44:57.078Z,20.57
2022-11-26T11:47:33.056Z,18.57
2022-11-26T11:50:31.106Z,22.87
2022-11-26T11:53:36.841Z,26.33
2022-11-26T11:56:31.691Z,33.43
2022-11-26T11:59:36.967Z,18.13
2022-11-26T12:02:41.610Z,25.27
2022-11-26T12:05:36.304Z,23.47
2022-11-26T12:08:23.996Z,16.80
2022-11-26T12:11:06.125Z,24.90
2022-11-26T12:13:59.182Z,23.13
2022-11-26T12:16:33.159Z,18.00
2022-11-26T12:19:07.106Z,24.07
2022-11-26T12:21:44.801Z,21.53
2022-11-26T12:24:48.797Z,16.40
2022-11-26T12:27:34.691Z,18.20
2022-11-26T12:30:22.055Z,16.83
2022-11-26T12:33:00.827Z,16.63
2022-11-26T12:35:40.233Z,15.53
2022-11-26T12:38:27.832Z,20.03
2022-11-26T12:41:11.441Z,22.90
2022-11-26T12:44:19.174Z,56.07
2022-11-26T12:47:19.800Z,15.97
2022-11-26T12:50:15.566Z,18.10
2022-11-26T12:52:54.865Z,22.60
2022-11-26T12:55:44.866Z,16.00
2022-11-26T12:58:28.995Z,22.57
2022-11-26T13:00:56.863Z,7.47
2022-11-26T13:03:32.330Z,17.20
2022-11-26T13:06:21.105Z,9.07
2022-11-26T13:09:12.095Z,10.80
2022-11-26T13:11:47.865Z,11.30
2022-11-26T13:14:44.833Z,11.80
2022-11-26T13:17:22.398Z,13.47
2022-11-26T13:19:57.286Z,11.80
2022-11-26T13:23:07.911Z,21.13
2022-11-26T13:26:02.292Z,15.20
2022-11-26T13:29:03.406Z,14.87
2022-11-26T13:32:26.016Z,13.50
2022-11-26T13:35:02.132Z,17.57
2022-11-26T13:37:58.063Z,19.87
2022-11-26T13:41:04.149Z,13.03
2022-11-26T13:44:20.130Z,12.30
2022-11-26T13:47:01.463Z,11.27
2022-11-26T13:49:41.844Z,8.83
2022-11-26T13:52:39.503Z,20.77
2022-11-26T13:55:23.254Z,13.73
2022-11-26T13:57:56.153Z,13.27
2022-11-26T14:00:34.617Z,18.17
2022-11-26T14:03:03.397Z,15.40
2022-11-26T14:05:49.090Z,12.50
2022-11-26T14:08:44.935Z,10.53
2022-11-26T14:11:17.142Z,12.33
2022-11-26T14:14:24.720Z,14.87
2022-11-26T14:17:13.078Z,18.40
2022-11-26T14:19:39.870Z,10.83
2022-11-26T14:22:21.256Z,11.40
2022-11-26T14:24:50.911Z,17.23
2022-11-26T14:27:31.554Z,15.07
2022-11-26T14:30:07.491Z,13.53
2022-11-26T14:33:10.472Z,24.20
2022-11-26T14:35:39.509Z,12.40
2022-11-26T14:38:28.200Z,27.50
2022-11-26T14:41:02.127Z,50.00
2022-11-26T14:43:29.938Z,33.50
2022-11-26T14:46:16.036Z,20.70
2022-11-26T14:48:48.689Z,18.17
2022-11-26T14:51:23.394Z,25.07
2022-11-26T14:53:51.212Z,30.93
2022-11-26T14:56:20.010Z,32.17
2022-11-26T14:58:52.900Z,34.47
2022-11-26T15:01:26.128Z,34.60
2022-11-26T15:04:07.728Z,34.87
2022-11-26T15:06:38.905Z,29.03
2022-11-26T15:09:15.184Z,34.17
2022-11-26T15:12:00.096Z,30.20
2022-11-26T15:14:41.681Z,34.23
2022-11-26T15:17:17.566Z,33.43
2022-11-26T15:19:45.001Z,28.23
2022-11-26T15:22:28.531Z,37.63
2022-11-26T15:24:55.597Z,32.80
2022-11-26T15:27:45.250Z,31.37
2022-11-26T15:30:32.064Z,33.47
2022-11-26T15:33:09.350Z,30.87
2022-11-26T15:35:37.447Z,15.77
2022-11-26T15:38:22.669Z,33.90
2022-11-26T15:41:03.005Z,25.00
2022-11-26T15:43:45.229Z,17.23
2022-11-26T15:46:26.427Z,22.17
2022-11-26T15:48:58.946Z,29.50
2022-11-26T15:51:42.546Z,22.53
2022-11-26T15:54:30.900Z,21.90
2022-11-26T15:57:20.007Z,24.60
2022-11-26T15:59:53.729Z,18.03
2022-11-26T16:02:24.509Z,17.63
2022-11-26T16:05:03.218Z,25.57
2022-11-26T16:07:32.937Z,18.03
2022-11-26T16:10:26.923Z,15.57
2022-11-26T16:13:27.709Z,29.40
2022-11-26T16:16:23.723Z,42.80
2022-11-26T16:18:59.291Z,20.87
2022-11-26T16:21:30.922Z,24.20
2022-11-26T16:24:03.181Z,17.93
2022-11-26T16:26:30.147Z,22.37
2022-11-26T16:28:57.042Z,17.23
2022-11-26T16:31:24.182Z,13.57
2022-11-26T16:33:51.163Z,19.03
2022-11-26T16:36:41.499Z,24.27
2022-11-26T16:39:14.916Z,19.80
2022-11-26T16:41:42.307Z,19.43
2022-11-26T16:44:09.325Z,17.87
2022-11-26T16:46:38.053Z,16.27
2022-11-26T16:49:05.420Z,17.03
2022-11-26T16:51:32.374Z,15.93
2022-11-26T16:53:59.238Z,21.13
2022-11-26T16:56:37.908Z,13.90
2022-11-26T16:59:19.673Z,26.83
2022-11-26T17:01:46.885Z,25.30
2022-11-26T17:04:14.523Z,21.60
2022-11-26T17:06:43.187Z,22.80
2022-11-26T17:09:18.143Z,20.63
2022-11-26T17:11:45.685Z,35.37
2022-11-26T17:14:12.893Z,36.73
2022-11-26T17:16:42.948Z,19.73
2022-11-26T17:19:13.892Z,24.07
2022-11-26T17:21:41.070Z,21.60
2022-11-26T17:24:08.388Z,25.50
2022-11-26T17:26:35.332Z,15.93
2022-11-26T17:29:02.351Z,25.97
2022-11-26T17:31:29.983Z,23.80
2022-11-26T17:33:57.105Z,29.63
2022-11-26T17:36:24.356Z,27.60
2022-11-26T17:38:51.852Z,25.00
2022-11-26T17:41:19.263Z,21.20
2022-11-26T17:43:46.437Z,30.17
2022-11-26T17:46:21.563Z,36.23
2022-11-26T17:48:49.962Z,40.63
2022-11-26T17:51:18.113Z,28.83
2022-11-26T17:53:45.457Z,25.30
2022-11-26T17:56:19.893Z,37.83
2022-11-26T17:58:47.430Z,22.00
2022-11-26T18:01:15.151Z,20.47
2022-11-26T18:03:43.947Z,32.53
2022-11-26T18:06:20.311Z,46.07
2022-11-26T18:08:47.188Z,22.10
2022-11-26T18:11:15.894Z,31.70
2022-11-26T18:13:42.916Z,61.50
2022-11-26T18:16:09.794Z,95.80
2022-11-26T18:18:36.778Z,34.97
2022-11-26T18:21:03.783Z,46.67
2022-11-26T18:23:30.621Z,21.10
2022-11-26T18:25:57.562Z,30.03
2022-11-26T18:28:24.461Z,29.37
2022-11-26T18:30:58.475Z,35.13
2022-11-26T18:33:25.634Z,40.80
2022-11-26T18:35:52.790Z,30.40
2022-11-26T18:38:19.691Z,49.93
2022-11-26T18:40:46.706Z,25.43
2022-11-26T18:43:13.619Z,55.33
2022-11-26T18:45:43.129Z,34.87
2022-11-26T18:48:10.085Z,27.80
2022-11-26T18:50:38.290Z,34.80
2022-11-26T18:53:05.300Z,35.07
2022-11-26T18:55:32.214Z,30.73
2022-11-26T18:58:00.370Z,23.80
2022-11-26T19:00:29.804Z,34.10
2022-11-26T19:02:57.493Z,41.33
2022-11-26T19:05:24.443Z,27.93
2022-11-26T19:07:51.340Z,32.10
2022-11-26T19:10:18.308Z,32.87
2022-11-26T19:12:45.156Z,29.07
2022-11-26T19:15:12.061Z,26.00
2022-11-26T19:17:38.972Z,35.73
2022-11-26T19:20:07.198Z,30.07
2022-11-26T19:22:34.662Z,31.93
2022-11-26T19:25:02.164Z,28.33
2022-11-26T19:27:29.013Z,28.90
2022-11-26T19:29:55.872Z,36.40
2022-11-26T19:32:23.111Z,28.07
2022-11-26T19:34:49.978Z,25.93
2022-11-26T19:37:16.848Z,33.87
2022-11-26T19:39:43.713Z,26.40
2022-11-26T19:42:10.836Z,53.47
2022-11-26T19:44:37.825Z,35.33
2022-11-26T19:47:04.724Z,33.20
2022-11-26T19:49:31.611Z,28.57
2022-11-26T19:51:58.584Z,27.23
2022-11-26T19:54:25.495Z,26.10
2022-11-26T19:56:52.405Z,24.03
2022-11-26T19:59:20.341Z,36.03
2022-11-26T20:01:47.921Z,36.93
2022-11-26T20:04:19.514Z,33.03
2022-11-26T20:06:46.359Z,39.00
2022-11-26T20:09:14.678Z,26.73
2022-11-26T20:11:42.212Z,32.30
2022-11-26T20:14:10.568Z,38.67
2022-11-26T20:16:40.340Z,37.97
2022-11-26T20:19:08.194Z,32.50
2022-11-26T20:21:36.367Z,39.53
2022-11-26T20:24:09.518Z,24.53
2022-11-26T20:26:40.534Z,32.20
2022-11-26T20:29:11.899Z,36.83
2022-11-26T20:31:51.300Z,34.03
2022-11-26T20:34:21.974Z,44.80
2022-11-26T20:36:49.077Z,30.23
2022-11-26T20:39:20.473Z,32.80
2022-11-26T20:41:47.900Z,24.00
2022-11-26T20:44:14.993Z,27.30
2022-11-26T20:46:42.591Z,38.97
2022-11-26T20:49:11.536Z,25.70
2022-11-26T20:51:39.193Z,30.80
2022-11-26T20:54:06.163Z,46.57
2022-11-26T20:56:33.239Z,26.43
2022-11-26T20:59:02.160Z,32.17
2022-11-26T21:01:31.438Z,46.00
2022-11-26T21:03:58.938Z,39.03
2022-11-26T21:06:30.411Z,41.17
2022-11-26T21:09:02.170Z,36.93
2022-11-26T21:11:30.146Z,40.90
2022-11-26T21:13:59.877Z,35.30
2022-11-26T21:16:28.405Z,39.53
2022-11-26T21:18:56.067Z,42.27
2022-11-26T21:21:25.049Z,40.50
2022-11-26T21:23:52.564Z,27.80
2022-11-26T21:26:24.258Z,30.57
2022-11-26T21:28:55.024Z,33.23
2022-11-26T21:31:23.158Z,43.60
2022-11-26T21:34:02.505Z,49.13
2022-11-26T21:36:32.357Z,47.60
2022-11-26T21:38:59.553Z,30.63
2022-11-26T21:41:27.458Z,39.23
2022-11-26T21:43:54.786Z,26.70
2022-11-26T21:46:25.508Z,21.13
2022-11-26T21:48:54.152Z,24.80
2022-11-26T21:51:22.487Z,55.40
2022-11-26T21:53:50.631Z,36.73
2022-11-26T21:56:21.368Z,36.67
2022-11-26T21:58:49.453Z,43.90
2022-11-26T22:01:21.068Z,34.60
2022-11-26T22:03:51.236Z,40.47
2022-11-26T22:06:20.873Z,31.10
2022-11-26T22:08:48.136Z,29.87
2022-11-26T22:11:23.238Z,32.93
2022-11-26T22:13:50.812Z,47.97
2022-11-26T22:16:21.105Z,35.33
2022-11-26T22:18:48.802Z,31.43
2022-11-26T22:21:26.200Z,50.20
2022-11-26T22:23:53.669Z,36.63
2022-11-26T22:28:50.241Z,35.87
2022-11-26T22:31:38.176Z,39.43
2022-11-26T22:34:12.516Z,36.70
2022-11-26T22:36:41.181Z,43.90
2022-11-26T22:39:12.893Z,45.40
2022-11-26T22:41:41.873Z,40.50
2022-11-26T22:44:09.555Z,47.00
2022-11-26T22:46:38.371Z,28.13
2022-11-26T22:49:06.544Z,54.17
2022-11-26T22:51:35.009Z,34.00
2022-11-26T22:54:05.157Z,41.53
2022-11-26T22:56:32.518Z,25.93
2022-11-26T22:59:01.425Z,28.93
2022-11-26T23:01:34.251Z,40.57
2022-11-26T23:04:05.147Z,26.83
2022-11-26T23:06:50.888Z,32.03
2022-11-26T23:09:24.533Z,29.00
2022-11-26T23:11:51.615Z,51.53
2022-11-26T23:14:21.046Z,37.17
2022-11-26T23:16:54.466Z,29.97
2022-11-26T23:19:30.206Z,33.57
2022-11-26T23:22:04.357Z,36.53
2022-11-26T23:24:37.351Z,44.53
2022-11-26T23:27:11.253Z,39.70
2022-11-26T23:30:08.206Z,33.27
2022-11-26T23:32:37.185Z,27.30
2022-11-26T23:35:12.849Z,28.90
2022-11-26T23:37:49.783Z,46.00
2022-11-26T23:40:17.295Z,48.47
2022-11-26T23:42:52.798Z,35.80
2022-11-26T23:45:23.775Z,30.33
2022-11-26T23:48:00.531Z,37.93
2022-11-26T23:50:28.813Z,53.07
2022-11-26T23:52:56.164Z,31.67
2022-11-26T23:55:46.476Z,30.73
2022-11-26T23:58:17.157Z,26.80
